sensor_id;sensor_type;location;lat;lon;timestamp;temperature;humidity
18289;DHT22;9270;49.774;8.472;2022-07-24T04:57:01;19.40;99.90
18289;DHT22;9270;49.774;8.472;2022-07-24T04:59:27;19.30;99.90
18289;DHT22;9270;49.774;8.472;2022-07-24T05:01:54;19.30;99.90
18289;DHT22;9270;49.774;8.472;2022-07-24T05:04:21;19.40;99.90
18289;DHT22;9270;49.774;8.472;2022-07-24T05:06:48;19.50;99.90
18289;DHT22;9270;49.774;8.472;2022-07-24T05:09:14;19.50;99.90
18289;DHT22;9270;49.774;8.472;2022-07-24T05:11:41;19.60;99.90
18289;DHT22;9270;49.774;8.472;2022-07-24T05:14:09;19.60;99.90
18289;DHT22;9270;49.774;8.472;2022-07-24T05:16:36;19.70;99.90
18289;DHT22;9270;49.774;8.472;2022-07-24T05:19:03;19.80;99.90
18289;DHT22;9270;49.774;8.472;2022-07-24T05:21:30;19.80;99.90
18289;DHT22;9270;49.774;8.472;2022-07-24T05:23:57;20.00;99.90
18289;DHT22;9270;49.774;8.472;2022-07-24T05:26:26;20.00;99.90
18289;DHT22;9270;49.774;8.472;2022-07-24T05:28:53;20.10;99.20
18289;DHT22;9270;49.774;8.472;2022-07-24T05:31:21;20.10;99.00
18289;DHT22;9270;49.774;8.472;2022-07-24T05:33:48;20.30;98.30
18289;DHT22;9270;49.774;8.472;2022-07-24T05:36:15;20.40;99.90
18289;DHT22;9270;49.774;8.472;2022-07-24T05:38:41;20.50;96.50
18289;DHT22;9270;49.774;8.472;2022-07-24T05:41:09;20.60;99.80
18289;DHT22;9270;49.774;8.472;2022-07-24T05:43:36;20.60;95.40
18289;DHT22;9270;49.774;8.472;2022-07-24T05:46:03;20.70;95.30
18289;DHT22;9270;49.774;8.472;2022-07-24T05:48:32;21.00;95.60
18289;DHT22;9270;49.774;8.472;2022-07-24T05:50:59;21.20;93.10
18289;DHT22;9270;49.774;8.472;2022-07-24T05:53:25;21.20;95.80
18289;DHT22;9270;49.774;8.472;2022-07-24T05:55:52;21.20;99.30
18289;DHT22;9270;49.774;8.472;2022-07-24T05:58:19;21.20;97.60
18289;DHT22;9270;49.774;8.472;2022-07-24T06:00:46;21.20;99.90
18289;DHT22;9270;49.774;8.472;2022-07-24T06:03:13;21.20;96.10
18289;DHT22;9270;49.774;8.472;2022-07-24T06:05:41;21.50;98.10
18289;DHT22;9270;49.774;8.472;2022-07-24T06:08:08;21.80;94.60
18289;DHT22;9270;49.774;8.472;2022-07-24T06:10:35;22.40;93.40
18289;DHT22;9270;49.774;8.472;2022-07-24T06:13:01;23.00;91.80
18289;DHT22;9270;49.774;8.472;2022-07-24T06:15:28;23.70;89.00
18289;DHT22;9270;49.774;8.472;2022-07-24T06:17:55;24.30;84.30
18289;DHT22;9270;49.774;8.472;2022-07-24T06:20:22;24.70;80.10
18289;DHT22;9270;49.774;8.472;2022-07-24T06:22:50;25.20;80.00
18289;DHT22;9270;49.774;8.472;2022-07-24T06:25:17;25.40;78.90
18289;DHT22;9270;49.774;8.472;2022-07-24T06:27:46;25.60;78.50
18289;DHT22;9270;49.774;8.472;2022-07-24T06:30:14;25.70;76.30
18289;DHT22;9270;49.774;8.472;2022-07-24T06:32:41;25.60;78.10
18289;DHT22;9270;49.774;8.472;2022-07-24T06:35:08;25.50;77.00
18289;DHT22;9270;49.774;8.472;2022-07-24T06:37:34;25.70;78.60
18289;DHT22;9270;49.774;8.472;2022-07-24T06:40:04;25.90;75.90
18289;DHT22;9270;49.774;8.472;2022-07-24T06:42:31;26.10;78.40
18289;DHT22;9270;49.774;8.472;2022-07-24T06:44:57;26.30;76.70
18289;DHT22;9270;49.774;8.472;2022-07-24T06:47:24;26.60;76.70
18289;DHT22;9270;49.774;8.472;2022-07-24T06:49:51;26.80;74.70
18289;DHT22;9270;49.774;8.472;2022-07-24T06:52:18;26.70;75.50
18289;DHT22;9270;49.774;8.472;2022-07-24T06:54:45;26.90;70.20
18289;DHT22;9270;49.774;8.472;2022-07-24T06:57:13;27.30;72.20
18289;DHT22;9270;49.774;8.472;2022-07-24T06:59:40;27.10;74.10
18289;DHT22;9270;49.774;8.472;2022-07-24T07:02:06;26.80;70.20
18289;DHT22;9270;49.774;8.472;2022-07-24T07:04:33;27.00;72.70
18289;DHT22;9270;49.774;8.472;2022-07-24T07:07:00;27.40;75.00
18289;DHT22;9270;49.774;8.472;2022-07-24T07:09:27;27.80;72.00
18289;DHT22;9270;49.774;8.472;2022-07-24T07:11:54;28.20;74.20
18289;DHT22;9270;49.774;8.472;2022-07-24T07:14:22;28.50;72.30
18289;DHT22;9270;49.774;8.472;2022-07-24T07:16:48;28.30;66.00
18289;DHT22;9270;49.774;8.472;2022-07-24T07:19:15;28.40;68.00
18289;DHT22;9270;49.774;8.472;2022-07-24T07:21:42;28.50;66.40
18289;DHT22;9270;49.774;8.472;2022-07-24T07:24:08;28.30;64.30
18289;DHT22;9270;49.774;8.472;2022-07-24T07:26:35;28.60;68.30
18289;DHT22;9270;49.774;8.472;2022-07-24T07:29:02;28.50;64.70
18289;DHT22;9270;49.774;8.472;2022-07-24T07:31:30;28.70;67.30
18289;DHT22;9270;49.774;8.472;2022-07-24T07:33:57;28.80;65.00
18289;DHT22;9270;49.774;8.472;2022-07-24T07:36:24;28.90;66.30
18289;DHT22;9270;49.774;8.472;2022-07-24T07:38:50;28.70;67.40
18289;DHT22;9270;49.774;8.472;2022-07-24T07:41:17;29.10;66.20
18289;DHT22;9270;49.774;8.472;2022-07-24T07:43:45;29.20;62.90
18289;DHT22;9270;49.774;8.472;2022-07-24T07:46:12;29.10;65.60
18289;DHT22;9270;49.774;8.472;2022-07-24T07:48:40;29.30;62.70
18289;DHT22;9270;49.774;8.472;2022-07-24T07:51:07;29.00;62.30
18289;DHT22;9270;49.774;8.472;2022-07-24T07:53:34;29.10;66.50
18289;DHT22;9270;49.774;8.472;2022-07-24T07:56:01;29.30;62.70
18289;DHT22;9270;49.774;8.472;2022-07-24T07:58:29;29.70;65.80
18289;DHT22;9270;49.774;8.472;2022-07-24T08:00:56;29.90;60.90
18289;DHT22;9270;49.774;8.472;2022-07-24T08:03:22;30.10;65.80
18289;DHT22;9270;49.774;8.472;2022-07-24T08:05:50;30.30;63.40
18289;DHT22;9270;49.774;8.472;2022-07-24T08:08:17;30.30;59.20
18289;DHT22;9270;49.774;8.472;2022-07-24T08:10:44;30.50;62.50
18289;DHT22;9270;49.774;8.472;2022-07-24T08:13:11;30.80;63.60
18289;DHT22;9270;49.774;8.472;2022-07-24T08:15:40;30.80;64.50
18289;DHT22;9270;49.774;8.472;2022-07-24T08:18:07;31.20;60.40
18289;DHT22;9270;49.774;8.472;2022-07-24T08:20:34;31.00;61.20
18289;DHT22;9270;49.774;8.472;2022-07-24T08:23:02;30.60;60.00
18289;DHT22;9270;49.774;8.472;2022-07-24T08:25:28;30.30;61.30
18289;DHT22;9270;49.774;8.472;2022-07-24T08:27:55;30.70;60.80
18289;DHT22;9270;49.774;8.472;2022-07-24T08:30:22;30.50;60.20
18289;DHT22;9270;49.774;8.472;2022-07-24T08:32:50;30.50;59.80
18289;DHT22;9270;49.774;8.472;2022-07-24T08:35:17;30.40;60.10
18289;DHT22;9270;49.774;8.472;2022-07-24T08:37:44;30.40;60.40
18289;DHT22;9270;49.774;8.472;2022-07-24T08:40:13;30.50;59.50
18289;DHT22;9270;49.774;8.472;2022-07-24T08:42:41;30.70;56.30
18289;DHT22;9270;49.774;8.472;2022-07-24T08:45:08;30.60;57.60
18289;DHT22;9270;49.774;8.472;2022-07-24T08:47:35;31.00;57.20
18289;DHT22;9270;49.774;8.472;2022-07-24T08:50:04;30.60;55.40
18289;DHT22;9270;49.774;8.472;2022-07-24T08:52:33;30.60;57.30
18289;DHT22;9270;49.774;8.472;2022-07-24T08:55:01;30.70;58.60
18289;DHT22;9270;49.774;8.472;2022-07-24T08:57:29;31.00;59.30
18289;DHT22;9270;49.774;8.472;2022-07-24T08:59:56;31.20;56.70
18289;DHT22;9270;49.774;8.472;2022-07-24T09:02:23;31.40;57.10
18289;DHT22;9270;49.774;8.472;2022-07-24T09:04:49;31.30;56.00
18289;DHT22;9270;49.774;8.472;2022-07-24T09:07:18;31.60;59.20
18289;DHT22;9270;49.774;8.472;2022-07-24T09:09:58;31.60;55.00
18289;DHT22;9270;49.774;8.472;2022-07-24T09:12:25;31.60;55.60
18289;DHT22;9270;49.774;8.472;2022-07-24T09:14:53;31.90;57.10
18289;DHT22;9270;49.774;8.472;2022-07-24T09:17:21;32.10;57.70
18289;DHT22;9270;49.774;8.472;2022-07-24T09:19:50;32.20;57.30
18289;DHT22;9270;49.774;8.472;2022-07-24T09:22:24;32.20;57.30
18289;DHT22;9270;49.774;8.472;2022-07-24T09:25:08;31.90;54.90
18289;DHT22;9270;49.774;8.472;2022-07-24T09:27:37;31.90;53.60
18289;DHT22;9270;49.774;8.472;2022-07-24T09:30:07;31.60;55.50
18289;DHT22;9270;49.774;8.472;2022-07-24T09:32:34;31.70;54.90
18289;DHT22;9270;49.774;8.472;2022-07-24T09:35:02;32.00;56.90
18289;DHT22;9270;49.774;8.472;2022-07-24T09:37:29;32.20;56.30
18289;DHT22;9270;49.774;8.472;2022-07-24T09:40:06;31.80;52.60
18289;DHT22;9270;49.774;8.472;2022-07-24T09:42:34;31.60;56.30
18289;DHT22;9270;49.774;8.472;2022-07-24T09:45:07;31.70;56.20
18289;DHT22;9270;49.774;8.472;2022-07-24T09:47:37;32.40;59.90
18289;DHT22;9270;49.774;8.472;2022-07-24T09:50:12;32.50;55.20
18289;DHT22;9270;49.774;8.472;2022-07-24T09:52:40;32.60;53.50
18289;DHT22;9270;49.774;8.472;2022-07-24T09:55:20;32.70;54.30
18289;DHT22;9270;49.774;8.472;2022-07-24T09:57:47;32.30;53.50
18289;DHT22;9270;49.774;8.472;2022-07-24T10:00:17;32.10;55.30
18289;DHT22;9270;49.774;8.472;2022-07-24T10:02:44;32.10;55.60
18289;DHT22;9270;49.774;8.472;2022-07-24T10:05:12;32.20;55.40
18289;DHT22;9270;49.774;8.472;2022-07-24T10:07:40;32.10;53.80
18289;DHT22;9270;49.774;8.472;2022-07-24T10:10:09;32.30;54.60
18289;DHT22;9270;49.774;8.472;2022-07-24T10:12:36;32.20;54.70
18289;DHT22;9270;49.774;8.472;2022-07-24T10:15:04;32.00;52.90
18289;DHT22;9270;49.774;8.472;2022-07-24T10:17:55;32.00;55.20
18289;DHT22;9270;49.774;8.472;2022-07-24T10:20:37;32.20;53.50
18289;DHT22;9270;49.774;8.472;2022-07-24T10:23:06;32.30;52.40
18289;DHT22;9270;49.774;8.472;2022-07-24T10:25:43;32.30;51.20
18289;DHT22;9270;49.774;8.472;2022-07-24T10:28:35;32.10;55.00
18289;DHT22;9270;49.774;8.472;2022-07-24T10:31:05;32.10;52.80
18289;DHT22;9270;49.774;8.472;2022-07-24T10:33:34;32.20;53.70
18289;DHT22;9270;49.774;8.472;2022-07-24T10:36:06;32.60;54.30
18289;DHT22;9270;49.774;8.472;2022-07-24T10:38:37;32.80;54.10
18289;DHT22;9270;49.774;8.472;2022-07-24T10:41:09;32.70;55.70
18289;DHT22;9270;49.774;8.472;2022-07-24T10:43:39;32.50;54.00
18289;DHT22;9270;49.774;8.472;2022-07-24T10:46:12;32.20;55.60
18289;DHT22;9270;49.774;8.472;2022-07-24T10:48:41;32.70;53.20
18289;DHT22;9270;49.774;8.472;2022-07-24T10:51:13;33.10;55.60
18289;DHT22;9270;49.774;8.472;2022-07-24T10:53:49;33.00;51.00
18289;DHT22;9270;49.774;8.472;2022-07-24T10:56:21;32.40;54.60
18289;DHT22;9270;49.774;8.472;2022-07-24T10:59:10;32.30;54.20
18289;DHT22;9270;49.774;8.472;2022-07-24T11:01:39;32.30;50.90
18289;DHT22;9270;49.774;8.472;2022-07-24T11:04:28;32.20;54.10
18289;DHT22;9270;49.774;8.472;2022-07-24T11:07:00;32.20;53.50
18289;DHT22;9270;49.774;8.472;2022-07-24T11:09:28;32.10;54.20
18289;DHT22;9270;49.774;8.472;2022-07-24T11:12:06;32.00;55.50
18289;DHT22;9270;49.774;8.472;2022-07-24T11:14:49;32.40;55.00
18289;DHT22;9270;49.774;8.472;2022-07-24T11:17:36;32.90;55.70
18289;DHT22;9270;49.774;8.472;2022-07-24T11:20:06;32.60;53.80
18289;DHT22;9270;49.774;8.472;2022-07-24T11:22:41;32.20;53.80
18289;DHT22;9270;49.774;8.472;2022-07-24T11:25:14;32.50;53.80
18289;DHT22;9270;49.774;8.472;2022-07-24T11:27:47;32.70;55.50
18289;DHT22;9270;49.774;8.472;2022-07-24T11:30:14;32.60;53.60
18289;DHT22;9270;49.774;8.472;2022-07-24T11:32:42;32.70;54.20
18289;DHT22;9270;49.774;8.472;2022-07-24T11:35:10;32.60;53.80
18289;DHT22;9270;49.774;8.472;2022-07-24T11:37:39;32.30;53.40
18289;DHT22;9270;49.774;8.472;2022-07-24T11:40:07;32.50;53.90
18289;DHT22;9270;49.774;8.472;2022-07-24T11:42:34;32.60;54.30
18289;DHT22;9270;49.774;8.472;2022-07-24T11:45:03;32.60;53.80
18289;DHT22;9270;49.774;8.472;2022-07-24T11:47:30;32.40;53.20
18289;DHT22;9270;49.774;8.472;2022-07-24T11:49:58;32.50;51.70
18289;DHT22;9270;49.774;8.472;2022-07-24T11:52:29;32.60;52.00
18289;DHT22;9270;49.774;8.472;2022-07-24T11:55:00;32.70;52.80
18289;DHT22;9270;49.774;8.472;2022-07-24T11:57:30;32.80;51.80
18289;DHT22;9270;49.774;8.472;2022-07-24T11:59:58;32.70;53.00
18289;DHT22;9270;49.774;8.472;2022-07-24T12:02:25;32.90;52.10
18289;DHT22;9270;49.774;8.472;2022-07-24T12:04:52;32.90;50.80
18289;DHT22;9270;49.774;8.472;2022-07-24T12:07:20;33.10;52.90
18289;DHT22;9270;49.774;8.472;2022-07-24T12:09:51;32.70;50.20
18289;DHT22;9270;49.774;8.472;2022-07-24T12:12:26;32.40;53.40
18289;DHT22;9270;49.774;8.472;2022-07-24T12:14:59;32.60;51.30
18289;DHT22;9270;49.774;8.472;2022-07-24T12:17:27;32.70;49.10
18289;DHT22;9270;49.774;8.472;2022-07-24T12:19:55;32.70;51.60
18289;DHT22;9270;49.774;8.472;2022-07-24T12:22:24;32.80;51.90
18289;DHT22;9270;49.774;8.472;2022-07-24T12:24:53;32.70;50.50
18289;DHT22;9270;49.774;8.472;2022-07-24T12:27:47;32.80;50.50
18289;DHT22;9270;49.774;8.472;2022-07-24T12:30:20;32.80;52.30
18289;DHT22;9270;49.774;8.472;2022-07-24T12:33:08;32.80;50.60
18289;DHT22;9270;49.774;8.472;2022-07-24T12:35:52;33.00;50.60
18289;DHT22;9270;49.774;8.472;2022-07-24T12:38:24;33.00;51.90
18289;DHT22;9270;49.774;8.472;2022-07-24T12:41:01;32.90;50.10
18289;DHT22;9270;49.774;8.472;2022-07-24T12:43:28;32.70;51.50
18289;DHT22;9270;49.774;8.472;2022-07-24T12:46:05;32.60;50.00
18289;DHT22;9270;49.774;8.472;2022-07-24T12:48:32;32.50;51.40
18289;DHT22;9270;49.774;8.472;2022-07-24T12:51:01;32.70;49.70
18289;DHT22;9270;49.774;8.472;2022-07-24T12:53:31;32.70;49.50
18289;DHT22;9270;49.774;8.472;2022-07-24T12:56:05;32.50;52.00
18289;DHT22;9270;49.774;8.472;2022-07-24T12:58:48;32.70;50.40
18289;DHT22;9270;49.774;8.472;2022-07-24T13:01:15;32.60;51.80
18289;DHT22;9270;49.774;8.472;2022-07-24T13:03:42;32.60;50.20
18289;DHT22;9270;49.774;8.472;2022-07-24T13:06:09;32.70;49.30
18289;DHT22;9270;49.774;8.472;2022-07-24T13:08:36;32.60;50.70
18289;DHT22;9270;49.774;8.472;2022-07-24T13:11:04;32.90;49.20
18289;DHT22;9270;49.774;8.472;2022-07-24T13:13:31;32.90;49.40
18289;DHT22;9270;49.774;8.472;2022-07-24T13:15:57;32.50;50.10
18289;DHT22;9270;49.774;8.472;2022-07-24T13:18:24;32.70;48.90
18289;DHT22;9270;49.774;8.472;2022-07-24T13:20:51;32.70;48.60
18289;DHT22;9270;49.774;8.472;2022-07-24T13:23:17;32.50;51.00
18289;DHT22;9270;49.774;8.472;2022-07-24T13:25:44;32.60;51.20
18289;DHT22;9270;49.774;8.472;2022-07-24T13:28:14;32.80;51.80
18289;DHT22;9270;49.774;8.472;2022-07-24T13:30:41;32.90;50.80
18289;DHT22;9270;49.774;8.472;2022-07-24T13:33:08;32.80;50.40
18289;DHT22;9270;49.774;8.472;2022-07-24T13:35:35;32.60;48.40
18289;DHT22;9270;49.774;8.472;2022-07-24T13:38:09;32.40;48.90
18289;DHT22;9270;49.774;8.472;2022-07-24T13:40:38;32.20;52.30
18289;DHT22;9270;49.774;8.472;2022-07-24T13:43:04;32.40;48.70
18289;DHT22;9270;49.774;8.472;2022-07-24T13:45:32;32.40;50.90
18289;DHT22;9270;49.774;8.472;2022-07-24T13:47:59;32.30;49.10
18289;DHT22;9270;49.774;8.472;2022-07-24T13:50:26;32.10;49.10
18289;DHT22;9270;49.774;8.472;2022-07-24T13:52:53;32.10;48.70
18289;DHT22;9270;49.774;8.472;2022-07-24T13:55:19;32.30;49.40
18289;DHT22;9270;49.774;8.472;2022-07-24T13:57:46;32.10;47.90
18289;DHT22;9270;49.774;8.472;2022-07-24T14:00:13;32.20;48.00
18289;DHT22;9270;49.774;8.472;2022-07-24T14:02:41;32.30;49.90
18289;DHT22;9270;49.774;8.472;2022-07-24T14:05:08;32.10;47.10
18289;DHT22;9270;49.774;8.472;2022-07-24T14:07:35;31.90;48.30
18289;DHT22;9270;49.774;8.472;2022-07-24T14:10:02;31.80;47.70
18289;DHT22;9270;49.774;8.472;2022-07-24T14:12:29;31.60;50.10
18289;DHT22;9270;49.774;8.472;2022-07-24T14:14:56;31.60;50.20
18289;DHT22;9270;49.774;8.472;2022-07-24T14:17:22;31.60;49.90
18289;DHT22;9270;49.774;8.472;2022-07-24T14:19:51;31.60;50.10
18289;DHT22;9270;49.774;8.472;2022-07-24T14:22:17;31.70;50.20
18289;DHT22;9270;49.774;8.472;2022-07-24T14:24:44;31.90;49.80
18289;DHT22;9270;49.774;8.472;2022-07-24T14:27:11;32.10;50.40
18289;DHT22;9270;49.774;8.472;2022-07-24T14:29:37;31.90;49.30
18289;DHT22;9270;49.774;8.472;2022-07-24T14:32:04;31.80;51.50
18289;DHT22;9270;49.774;8.472;2022-07-24T14:34:31;31.60;51.40
18289;DHT22;9270;49.774;8.472;2022-07-24T14:37:00;31.50;49.70
18289;DHT22;9270;49.774;8.472;2022-07-24T14:39:28;31.60;49.40
18289;DHT22;9270;49.774;8.472;2022-07-24T14:41:56;31.50;50.50
18289;DHT22;9270;49.774;8.472;2022-07-24T14:44:22;31.50;50.80
18289;DHT22;9270;49.774;8.472;2022-07-24T14:46:49;31.70;49.60
18289;DHT22;9270;49.774;8.472;2022-07-24T14:49:16;31.70;49.90
18289;DHT22;9270;49.774;8.472;2022-07-24T14:51:43;31.60;50.40
18289;DHT22;9270;49.774;8.472;2022-07-24T14:54:11;31.60;51.50
18289;DHT22;9270;49.774;8.472;2022-07-24T14:56:38;31.80;49.30
18289;DHT22;9270;49.774;8.472;2022-07-24T14:59:05;31.90;50.60
18289;DHT22;9270;49.774;8.472;2022-07-24T15:01:32;31.70;49.90
18289;DHT22;9270;49.774;8.472;2022-07-24T15:03:59;31.70;49.80
18289;DHT22;9270;49.774;8.472;2022-07-24T15:06:27;31.70;51.70
18289;DHT22;9270;49.774;8.472;2022-07-24T15:08:54;31.70;50.40
18289;DHT22;9270;49.774;8.472;2022-07-24T15:11:22;31.80;50.30
18289;DHT22;9270;49.774;8.472;2022-07-24T15:13:51;31.70;50.50
18289;DHT22;9270;49.774;8.472;2022-07-24T15:16:18;31.70;49.00
18289;DHT22;9270;49.774;8.472;2022-07-24T15:18:45;31.80;49.80
18289;DHT22;9270;49.774;8.472;2022-07-24T15:21:12;31.80;50.00
18289;DHT22;9270;49.774;8.472;2022-07-24T15:23:38;31.70;50.50
18289;DHT22;9270;49.774;8.472;2022-07-24T15:26:05;31.50;50.30
18289;DHT22;9270;49.774;8.472;2022-07-24T15:28:33;31.30;51.60
18289;DHT22;9270;49.774;8.472;2022-07-24T15:31:00;31.20;51.40
18289;DHT22;9270;49.774;8.472;2022-07-24T15:33:27;31.10;51.80
18289;DHT22;9270;49.774;8.472;2022-07-24T15:35:53;31.20;51.00
18289;DHT22;9270;49.774;8.472;2022-07-24T15:38:20;31.10;52.00
18289;DHT22;9270;49.774;8.472;2022-07-24T15:40:47;31.00;50.50
18289;DHT22;9270;49.774;8.472;2022-07-24T15:43:14;31.00;49.80
18289;DHT22;9270;49.774;8.472;2022-07-24T15:45:44;31.30;49.30
18289;DHT22;9270;49.774;8.472;2022-07-24T15:48:10;31.40;50.10
18289;DHT22;9270;49.774;8.472;2022-07-24T15:50:37;31.30;49.80
18289;DHT22;9270;49.774;8.472;2022-07-24T15:53:08;31.30;50.00
18289;DHT22;9270;49.774;8.472;2022-07-24T15:55:38;31.40;49.50
18289;DHT22;9270;49.774;8.472;2022-07-24T15:58:05;31.50;48.70
18289;DHT22;9270;49.774;8.472;2022-07-24T16:00:32;31.50;49.10
18289;DHT22;9270;49.774;8.472;2022-07-24T16:03:00;31.40;48.60
18289;DHT22;9270;49.774;8.472;2022-07-24T16:05:27;31.30;49.90
18289;DHT22;9270;49.774;8.472;2022-07-24T16:07:54;31.50;49.40
18289;DHT22;9270;49.774;8.472;2022-07-24T16:10:22;31.30;48.00
18289;DHT22;9270;49.774;8.472;2022-07-24T16:12:49;31.50;49.30
18289;DHT22;9270;49.774;8.472;2022-07-24T16:15:16;31.50;48.30
18289;DHT22;9270;49.774;8.472;2022-07-24T16:17:44;31.60;48.50
18289;DHT22;9270;49.774;8.472;2022-07-24T16:20:15;31.50;49.10
18289;DHT22;9270;49.774;8.472;2022-07-24T16:22:42;31.40;49.10
18289;DHT22;9270;49.774;8.472;2022-07-24T16:25:09;31.30;48.90
18289;DHT22;9270;49.774;8.472;2022-07-24T16:27:36;31.20;49.00
18289;DHT22;9270;49.774;8.472;2022-07-24T16:30:04;31.10;49.90
18289;DHT22;9270;49.774;8.472;2022-07-24T16:32:31;31.00;48.60
18289;DHT22;9270;49.774;8.472;2022-07-24T16:34:58;31.00;49.20
18289;DHT22;9270;49.774;8.472;2022-07-24T16:37:27;31.10;49.20
18289;DHT22;9270;49.774;8.472;2022-07-24T16:39:54;31.00;48.90
18289;DHT22;9270;49.774;8.472;2022-07-24T16:42:21;30.80;49.90
18289;DHT22;9270;49.774;8.472;2022-07-24T16:44:47;30.80;52.00
18289;DHT22;9270;49.774;8.472;2022-07-24T16:47:14;30.80;50.00
18289;DHT22;9270;49.774;8.472;2022-07-24T16:49:41;30.90;50.10
18289;DHT22;9270;49.774;8.472;2022-07-24T16:52:07;30.90;48.50
18289;DHT22;9270;49.774;8.472;2022-07-24T16:54:38;30.80;50.20
18289;DHT22;9270;49.774;8.472;2022-07-24T16:57:05;30.90;48.90
18289;DHT22;9270;49.774;8.472;2022-07-24T16:59:32;30.80;50.00
18289;DHT22;9270;49.774;8.472;2022-07-24T17:01:59;30.80;48.50
18289;DHT22;9270;49.774;8.472;2022-07-24T17:04:26;30.90;50.30
18289;DHT22;9270;49.774;8.472;2022-07-24T17:06:53;30.80;50.70
18289;DHT22;9270;49.774;8.472;2022-07-24T17:09:19;30.70;50.00
18289;DHT22;9270;49.774;8.472;2022-07-24T17:11:47;30.70;50.10
18289;DHT22;9270;49.774;8.472;2022-07-24T17:14:17;30.60;49.40
18289;DHT22;9270;49.774;8.472;2022-07-24T17:16:44;30.60;49.80
18289;DHT22;9270;49.774;8.472;2022-07-24T17:19:10;30.60;49.50
18289;DHT22;9270;49.774;8.472;2022-07-24T17:21:37;30.50;50.40
18289;DHT22;9270;49.774;8.472;2022-07-24T17:24:04;30.40;51.00
18289;DHT22;9270;49.774;8.472;2022-07-24T17:26:31;30.40;49.80
18289;DHT22;9270;49.774;8.472;2022-07-24T17:28:59;30.40;51.10
18289;DHT22;9270;49.774;8.472;2022-07-24T17:31:26;30.30;50.40
18289;DHT22;9270;49.774;8.472;2022-07-24T17:33:53;30.40;52.00
18289;DHT22;9270;49.774;8.472;2022-07-24T17:36:20;30.30;52.30
18289;DHT22;9270;49.774;8.472;2022-07-24T17:38:47;30.20;51.90
18289;DHT22;9270;49.774;8.472;2022-07-24T17:41:14;30.10;50.70
18289;DHT22;9270;49.774;8.472;2022-07-24T17:43:41;30.10;52.60
18289;DHT22;9270;49.774;8.472;2022-07-24T17:46:09;30.10;51.50
18289;DHT22;9270;49.774;8.472;2022-07-24T17:48:36;29.90;52.00
18289;DHT22;9270;49.774;8.472;2022-07-24T17:51:05;29.80;51.50
18289;DHT22;9270;49.774;8.472;2022-07-24T17:53:31;29.70;51.70
18289;DHT22;9270;49.774;8.472;2022-07-24T17:55:58;29.60;52.00
18289;DHT22;9270;49.774;8.472;2022-07-24T17:58:25;29.50;53.00
18289;DHT22;9270;49.774;8.472;2022-07-24T18:00:51;29.50;53.60
18289;DHT22;9270;49.774;8.472;2022-07-24T18:03:20;29.50;51.30
18289;DHT22;9270;49.774;8.472;2022-07-24T18:05:46;29.30;53.40
18289;DHT22;9270;49.774;8.472;2022-07-24T18:08:13;29.20;51.80
18289;DHT22;9270;49.774;8.472;2022-07-24T18:10:40;29.30;54.90
18289;DHT22;9270;49.774;8.472;2022-07-24T18:13:06;29.30;56.00
18289;DHT22;9270;49.774;8.472;2022-07-24T18:15:33;29.20;55.00
18289;DHT22;9270;49.774;8.472;2022-07-24T18:18:07;29.10;55.50
18289;DHT22;9270;49.774;8.472;2022-07-24T18:20:35;28.90;56.10
18289;DHT22;9270;49.774;8.472;2022-07-24T18:23:02;28.90;54.70
18289;DHT22;9270;49.774;8.472;2022-07-24T18:25:29;28.80;56.90
18289;DHT22;9270;49.774;8.472;2022-07-24T18:27:55;28.80;56.00
18289;DHT22;9270;49.774;8.472;2022-07-24T18:30:22;28.60;57.80
18289;DHT22;9270;49.774;8.472;2022-07-24T18:32:49;28.50;55.80
18289;DHT22;9270;49.774;8.472;2022-07-24T18:35:16;28.50;56.20
18289;DHT22;9270;49.774;8.472;2022-07-24T18:37:45;28.30;57.70
18289;DHT22;9270;49.774;8.472;2022-07-24T18:40:12;28.10;59.50
18289;DHT22;9270;49.774;8.472;2022-07-24T18:42:39;28.00;57.30
18289;DHT22;9270;49.774;8.472;2022-07-24T18:45:07;27.70;58.30
18289;DHT22;9270;49.774;8.472;2022-07-24T18:47:34;27.60;55.70
18289;DHT22;9270;49.774;8.472;2022-07-24T18:50:01;27.60;58.20
18289;DHT22;9270;49.774;8.472;2022-07-24T18:52:28;27.60;56.70
18289;DHT22;9270;49.774;8.472;2022-07-24T18:54:56;27.50;63.10
18289;DHT22;9270;49.774;8.472;2022-07-24T18:57:23;27.30;58.20
18289;DHT22;9270;49.774;8.472;2022-07-24T18:59:50;27.20;61.10
18289;DHT22;9270;49.774;8.472;2022-07-24T19:02:17;27.00;63.20
18289;DHT22;9270;49.774;8.472;2022-07-24T19:04:44;26.80;60.70
18289;DHT22;9270;49.774;8.472;2022-07-24T19:07:10;26.70;60.30
18289;DHT22;9270;49.774;8.472;2022-07-24T19:09:37;26.50;61.50
18289;DHT22;9270;49.774;8.472;2022-07-24T19:12:06;26.50;60.30
18289;DHT22;9270;49.774;8.472;2022-07-24T19:14:33;26.50;60.00
18289;DHT22;9270;49.774;8.472;2022-07-24T19:16:59;26.20;63.10
18289;DHT22;9270;49.774;8.472;2022-07-24T19:19:26;26.20;60.90
18289;DHT22;9270;49.774;8.472;2022-07-24T19:21:53;26.00;71.00
18289;DHT22;9270;49.774;8.472;2022-07-24T19:24:20;26.10;61.70
18289;DHT22;9270;49.774;8.472;2022-07-24T19:26:47;26.10;61.60
18289;DHT22;9270;49.774;8.472;2022-07-24T19:29:15;26.10;62.10
18289;DHT22;9270;49.774;8.472;2022-07-24T19:31:42;26.10;61.10
18289;DHT22;9270;49.774;8.472;2022-07-24T19:34:09;26.00;63.70
18289;DHT22;9270;49.774;8.472;2022-07-24T19:36:35;26.00;59.80
18289;DHT22;9270;49.774;8.472;2022-07-24T19:39:02;26.00;59.10
18289;DHT22;9270;49.774;8.472;2022-07-24T19:41:29;26.00;59.20
18289;DHT22;9270;49.774;8.472;2022-07-24T19:43:56;25.80;62.70
18289;DHT22;9270;49.774;8.472;2022-07-24T19:46:24;25.70;64.00
18289;DHT22;9270;49.774;8.472;2022-07-24T19:48:51;25.60;61.90
18289;DHT22;9270;49.774;8.472;2022-07-24T19:51:18;25.50;68.40
18289;DHT22;9270;49.774;8.472;2022-07-24T19:53:44;25.40;67.00
18289;DHT22;9270;49.774;8.472;2022-07-24T19:56:11;25.20;71.10
